EDDM/MUC METAR and TAF weather

Enter ICAO airport designator
Station Type Date Time Source
EDDM METAR 2019/05/26 00:50 UTC NOAA

EDDM 260050Z 26006KT CAVOK 13/11 Q1016 NOSIG


Station Type Date Time Source
EDDM Decoded METAR 2019/05/26 00:50 UTC NOAA

Munchen, Germany (EDDM) 48-21N 011-47E
May 25, 2019 - 08:50 PM EDT / 2019.05.26 0050 UTC
Wind: from the W (260 degrees) at 7 MPH (6 KT):0
Visibility: greater than 7 mile(s):0
Temperature: 55 F (13 C)
Dew Point: 51 F (11 C)
Relative Humidity: 87%
Pressure (altimeter): 30.00 in. Hg (1016 hPa)
ob: EDDM 260050Z 26006KT CAVOK 13/11 Q1016 NOSIG
cycle: 1

Station Type Date Time Source
EDDM TAF 2019/05/25 18:27 UTC NOAA

TAF EDDM 251700Z 2518/2624 26004KT 9999 SCT040 PROB30
TEMPO 2518/2520 SHRA SCT040CB

Example: see airport list